sensor_id;sensor_type;location;lat;lon;timestamp;pressure;altitude;pressure_sealevel;temperature;humidity
49979;BME280;35869;50.990;6.962;2023-09-18T00:00:17;100356.78;;;20.85;100.00
49979;BME280;35869;50.990;6.962;2023-09-18T00:05:18;100350.81;;;20.83;100.00
49979;BME280;35869;50.990;6.962;2023-09-18T00:10:18;100338.88;;;20.79;100.00
49979;BME280;35869;50.990;6.962;2023-09-18T00:15:18;100335.97;;;20.72;100.00
49979;BME280;35869;50.990;6.962;2023-09-18T00:20:18;100326.38;;;20.71;100.00
49979;BME280;35869;50.990;6.962;2023-09-18T00:25:19;100322.50;;;20.65;100.00
49979;BME280;35869;50.990;6.962;2023-09-18T00:30:19;100314.84;;;20.62;100.00
49979;BME280;35869;50.990;6.962;2023-09-18T00:35:19;100306.41;;;20.59;100.00
49979;BME280;35869;50.990;6.962;2023-09-18T00:40:19;100301.53;;;20.54;100.00
49979;BME280;35869;50.990;6.962;2023-09-18T00:45:20;100292.94;;;20.52;100.00
49979;BME280;35869;50.990;6.962;2023-09-18T00:50:20;100283.63;;;20.48;100.00
49979;BME280;35869;50.990;6.962;2023-09-18T00:55:21;100269.72;;;20.46;100.00
49979;BME280;35869;50.990;6.962;2023-09-18T01:00:21;100277.91;;;20.43;100.00
49979;BME280;35869;50.990;6.962;2023-09-18T01:05:22;100278.16;;;20.40;100.00
49979;BME280;35869;50.990;6.962;2023-09-18T01:10:24;100286.09;;;20.40;100.00
49979;BME280;35869;50.990;6.962;2023-09-18T01:15:35;100266.94;;;20.38;100.00
49979;BME280;35869;50.990;6.962;2023-09-18T01:20:36;100259.00;;;20.38;100.00
49979;BME280;35869;50.990;6.962;2023-09-18T01:25:37;100251.25;;;20.36;100.00
49979;BME280;35869;50.990;6.962;2023-09-18T01:30:37;100250.13;;;20.39;100.00
49979;BME280;35869;50.990;6.962;2023-09-18T01:35:38;100242.50;;;20.36;100.00
49979;BME280;35869;50.990;6.962;2023-09-18T01:40:40;100241.66;;;20.35;100.00
49979;BME280;35869;50.990;6.962;2023-09-18T01:45:41;100234.59;;;20.36;100.00
49979;BME280;35869;50.990;6.962;2023-09-18T01:50:42;100239.56;;;20.39;100.00
49979;BME280;35869;50.990;6.962;2023-09-18T01:55:42;100213.47;;;20.36;100.00
49979;BME280;35869;50.990;6.962;2023-09-18T02:00:43;100221.22;;;20.37;100.00
49979;BME280;35869;50.990;6.962;2023-09-18T02:05:43;100214.16;;;20.38;100.00
49979;BME280;35869;50.990;6.962;2023-09-18T02:10:43;100206.63;;;20.43;100.00
49979;BME280;35869;50.990;6.962;2023-09-18T02:15:44;100193.69;;;20.40;100.00
49979;BME280;35869;50.990;6.962;2023-09-18T02:20:45;100202.34;;;20.42;100.00
49979;BME280;35869;50.990;6.962;2023-09-18T02:25:45;100220.09;;;20.40;100.00
49979;BME280;35869;50.990;6.962;2023-09-18T02:30:46;100228.44;;;20.45;100.00
49979;BME280;35869;50.990;6.962;2023-09-18T02:35:46;100209.00;;;20.46;100.00
49979;BME280;35869;50.990;6.962;2023-09-18T02:40:46;100200.81;;;20.49;100.00
49979;BME280;35869;50.990;6.962;2023-09-18T02:45:46;100183.72;;;20.53;100.00
49979;BME280;35869;50.990;6.962;2023-09-18T02:50:46;100172.16;;;20.54;100.00
49979;BME280;35869;50.990;6.962;2023-09-18T02:55:49;100160.06;;;20.52;100.00
49979;BME280;35869;50.990;6.962;2023-09-18T03:00:50;100130.91;;;20.53;100.00
49979;BME280;35869;50.990;6.962;2023-09-18T03:05:50;100124.78;;;20.53;100.00
49979;BME280;35869;50.990;6.962;2023-09-18T03:10:50;100119.63;;;20.51;100.00
49979;BME280;35869;50.990;6.962;2023-09-18T03:15:50;100116.31;;;20.49;100.00
49979;BME280;35869;50.990;6.962;2023-09-18T03:20:51;100115.34;;;20.50;100.00
49979;BME280;35869;50.990;6.962;2023-09-18T03:25:51;100087.28;;;20.49;100.00
49979;BME280;35869;50.990;6.962;2023-09-18T03:30:51;100157.59;;;20.50;100.00
49979;BME280;35869;50.990;6.962;2023-09-18T03:35:52;100166.50;;;20.49;100.00
49979;BME280;35869;50.990;6.962;2023-09-18T03:40:52;100170.09;;;20.48;100.00
49979;BME280;35869;50.990;6.962;2023-09-18T03:45:52;100147.19;;;20.48;100.00
49979;BME280;35869;50.990;6.962;2023-09-18T03:50:53;100129.25;;;20.52;100.00
49979;BME280;35869;50.990;6.962;2023-09-18T03:55:53;100113.69;;;20.49;100.00
49979;BME280;35869;50.990;6.962;2023-09-18T04:00:53;100106.75;;;20.48;100.00
49979;BME280;35869;50.990;6.962;2023-09-18T04:05:53;100117.81;;;20.52;100.00
49979;BME280;35869;50.990;6.962;2023-09-18T04:10:54;100122.59;;;20.48;100.00
49979;BME280;35869;50.990;6.962;2023-09-18T04:15:55;100124.25;;;20.49;100.00
49979;BME280;35869;50.990;6.962;2023-09-18T04:20:55;100101.16;;;20.51;100.00
49979;BME280;35869;50.990;6.962;2023-09-18T04:25:55;100118.81;;;20.50;100.00
49979;BME280;35869;50.990;6.962;2023-09-18T04:30:56;100116.88;;;20.53;100.00
49979;BME280;35869;50.990;6.962;2023-09-18T04:35:56;100124.47;;;20.56;100.00
49979;BME280;35869;50.990;6.962;2023-09-18T04:41:00;100117.69;;;20.53;100.00
49979;BME280;35869;50.990;6.962;2023-09-18T04:46:01;100104.63;;;20.52;100.00
49979;BME280;35869;50.990;6.962;2023-09-18T04:51:02;100113.69;;;20.49;100.00
49979;BME280;35869;50.990;6.962;2023-09-18T04:56:03;100107.72;;;20.47;100.00
49979;BME280;35869;50.990;6.962;2023-09-18T05:01:03;100112.84;;;20.48;100.00
49979;BME280;35869;50.990;6.962;2023-09-18T05:06:03;100121.19;;;20.44;100.00
49979;BME280;35869;50.990;6.962;2023-09-18T05:11:03;100116.72;;;20.44;100.00
49979;BME280;35869;50.990;6.962;2023-09-18T05:16:04;100114.25;;;20.43;100.00
49979;BME280;35869;50.990;6.962;2023-09-18T05:21:04;100118.00;;;20.40;100.00
49979;BME280;35869;50.990;6.962;2023-09-18T05:26:04;100145.66;;;20.36;100.00
49979;BME280;35869;50.990;6.962;2023-09-18T05:31:05;100103.72;;;20.33;100.00
49979;BME280;35869;50.990;6.962;2023-09-18T05:36:05;100122.34;;;20.32;100.00
49979;BME280;35869;50.990;6.962;2023-09-18T05:41:05;100148.72;;;20.32;100.00
49979;BME280;35869;50.990;6.962;2023-09-18T05:46:05;100161.53;;;20.27;100.00
49979;BME280;35869;50.990;6.962;2023-09-18T05:51:05;100164.88;;;20.29;100.00
49979;BME280;35869;50.990;6.962;2023-09-18T05:56:06;100157.63;;;20.31;100.00
49979;BME280;35869;50.990;6.962;2023-09-18T06:01:06;100168.47;;;20.28;100.00
49979;BME280;35869;50.990;6.962;2023-09-18T06:06:07;100154.88;;;20.22;100.00
49979;BME280;35869;50.990;6.962;2023-09-18T06:11:07;100152.09;;;20.24;100.00
49979;BME280;35869;50.990;6.962;2023-09-18T06:16:07;100171.41;;;20.24;100.00
49979;BME280;35869;50.990;6.962;2023-09-18T06:21:07;100182.22;;;20.21;100.00
49979;BME280;35869;50.990;6.962;2023-09-18T06:26:08;100161.53;;;20.27;100.00
49979;BME280;35869;50.990;6.962;2023-09-18T06:31:08;100157.06;;;20.27;100.00
49979;BME280;35869;50.990;6.962;2023-09-18T06:36:08;100173.75;;;20.28;100.00
49979;BME280;35869;50.990;6.962;2023-09-18T06:41:08;100179.84;;;20.28;100.00
49979;BME280;35869;50.990;6.962;2023-09-18T06:46:09;100171.81;;;20.30;100.00
49979;BME280;35869;50.990;6.962;2023-09-18T06:51:09;100152.34;;;20.31;100.00
49979;BME280;35869;50.990;6.962;2023-09-18T06:56:09;100159.28;;;20.32;100.00
49979;BME280;35869;50.990;6.962;2023-09-18T07:01:09;100173.16;;;20.34;100.00
49979;BME280;35869;50.990;6.962;2023-09-18T07:06:10;100188.88;;;20.35;100.00
49979;BME280;35869;50.990;6.962;2023-09-18T07:11:10;100181.50;;;20.39;100.00
49979;BME280;35869;50.990;6.962;2023-09-18T07:16:10;100187.16;;;20.44;100.00
49979;BME280;35869;50.990;6.962;2023-09-18T07:21:11;100211.63;;;20.46;100.00
49979;BME280;35869;50.990;6.962;2023-09-18T07:26:11;100209.41;;;20.51;100.00
49979;BME280;35869;50.990;6.962;2023-09-18T07:31:11;100215.09;;;20.56;100.00
49979;BME280;35869;50.990;6.962;2023-09-18T07:36:12;100217.31;;;20.51;100.00
49979;BME280;35869;50.990;6.962;2023-09-18T07:41:12;100232.75;;;20.56;100.00
49979;BME280;35869;50.990;6.962;2023-09-18T07:46:12;100250.94;;;20.59;100.00
49979;BME280;35869;50.990;6.962;2023-09-18T07:51:12;100259.69;;;20.59;100.00
49979;BME280;35869;50.990;6.962;2023-09-18T07:56:13;100239.66;;;20.66;100.00
49979;BME280;35869;50.990;6.962;2023-09-18T08:01:13;100245.63;;;20.68;100.00
49979;BME280;35869;50.990;6.962;2023-09-18T08:06:13;100256.19;;;20.68;100.00
49979;BME280;35869;50.990;6.962;2023-09-18T08:11:14;100270.19;;;20.79;100.00
49979;BME280;35869;50.990;6.962;2023-09-18T08:16:14;100286.75;;;20.71;100.00
49979;BME280;35869;50.990;6.962;2023-09-18T08:21:14;100272.72;;;20.70;100.00
49979;BME280;35869;50.990;6.962;2023-09-18T08:26:14;100261.44;;;20.78;100.00
49979;BME280;35869;50.990;6.962;2023-09-18T08:31:14;100268.09;;;20.82;100.00
49979;BME280;35869;50.990;6.962;2023-09-18T08:36:15;100279.19;;;20.86;100.00
49979;BME280;35869;50.990;6.962;2023-09-18T08:41:18;100274.88;;;20.94;100.00
49979;BME280;35869;50.990;6.962;2023-09-18T08:46:18;100276.13;;;20.90;100.00
49979;BME280;35869;50.990;6.962;2023-09-18T08:51:19;100296.13;;;20.93;100.00
49979;BME280;35869;50.990;6.962;2023-09-18T08:56:21;100283.63;;;20.95;100.00
49979;BME280;35869;50.990;6.962;2023-09-18T09:01:21;100276.38;;;20.97;100.00
49979;BME280;35869;50.990;6.962;2023-09-18T09:06:21;100277.69;;;21.11;100.00
49979;BME280;35869;50.990;6.962;2023-09-18T09:11:22;100273.50;;;21.18;100.00
49979;BME280;35869;50.990;6.962;2023-09-18T09:16:22;100289.88;;;21.21;100.00
49979;BME280;35869;50.990;6.962;2023-09-18T09:21:22;100294.56;;;21.37;100.00
49979;BME280;35869;50.990;6.962;2023-09-18T09:26:23;100303.03;;;21.41;100.00
49979;BME280;35869;50.990;6.962;2023-09-18T09:31:27;100314.97;;;21.45;100.00
49979;BME280;35869;50.990;6.962;2023-09-18T09:36:28;100283.72;;;21.40;100.00
49979;BME280;35869;50.990;6.962;2023-09-18T09:41:28;100284.91;;;21.46;99.21
49979;BME280;35869;50.990;6.962;2023-09-18T09:46:28;100288.63;;;21.53;100.00
49979;BME280;35869;50.990;6.962;2023-09-18T09:51:29;100283.13;;;21.64;100.00
49979;BME280;35869;50.990;6.962;2023-09-18T09:56:49;100281.75;;;21.60;98.82
49979;BME280;35869;50.990;6.962;2023-09-18T10:01:50;100265.69;;;21.89;98.41
49979;BME280;35869;50.990;6.962;2023-09-18T10:06:52;100275.28;;;21.90;99.72
49979;BME280;35869;50.990;6.962;2023-09-18T10:11:56;100259.34;;;21.82;98.00
49979;BME280;35869;50.990;6.962;2023-09-18T10:16:59;100259.94;;;21.76;97.41
49979;BME280;35869;50.990;6.962;2023-09-18T10:27:16;100265.22;;;21.94;96.39
49979;BME280;35869;50.990;6.962;2023-09-18T10:32:18;100277.31;;;22.14;97.75
49979;BME280;35869;50.990;6.962;2023-09-18T10:37:19;100277.75;;;22.27;96.15
49979;BME280;35869;50.990;6.962;2023-09-18T10:42:20;100276.16;;;22.34;95.17
49979;BME280;35869;50.990;6.962;2023-09-18T10:47:22;100285.78;;;22.35;94.04
49979;BME280;35869;50.990;6.962;2023-09-18T10:52:23;100288.47;;;22.44;92.01
49979;BME280;35869;50.990;6.962;2023-09-18T10:57:24;100291.81;;;22.46;91.73
49979;BME280;35869;50.990;6.962;2023-09-18T11:02:24;100278.50;;;22.64;93.52
49979;BME280;35869;50.990;6.962;2023-09-18T11:07:24;100275.63;;;22.57;90.14
49979;BME280;35869;50.990;6.962;2023-09-18T11:12:54;100270.94;;;23.03;93.38
49979;BME280;35869;50.990;6.962;2023-09-18T11:18:05;100266.50;;;22.85;88.84
49979;BME280;35869;50.990;6.962;2023-09-18T11:28:16;100278.59;;;23.06;90.05
49979;BME280;35869;50.990;6.962;2023-09-18T11:38:31;100283.09;;;23.22;84.21
49979;BME280;35869;50.990;6.962;2023-09-18T11:43:31;100285.22;;;23.60;82.39
49979;BME280;35869;50.990;6.962;2023-09-18T11:48:32;100256.84;;;23.53;86.71
49979;BME280;35869;50.990;6.962;2023-09-18T11:53:35;100247.03;;;23.37;82.91
49979;BME280;35869;50.990;6.962;2023-09-18T11:58:51;100231.38;;;23.76;82.05
49979;BME280;35869;50.990;6.962;2023-09-18T12:03:55;100229.69;;;23.67;80.66
49979;BME280;35869;50.990;6.962;2023-09-18T12:08:59;100231.53;;;23.75;84.39
49979;BME280;35869;50.990;6.962;2023-09-18T12:19:59;100230.03;;;23.88;75.92
49979;BME280;35869;50.990;6.962;2023-09-18T12:25:12;100229.38;;;23.94;74.96
49979;BME280;35869;50.990;6.962;2023-09-18T12:30:13;100222.06;;;24.13;75.41
49979;BME280;35869;50.990;6.962;2023-09-18T12:35:14;100230.03;;;24.45;73.56
49979;BME280;35869;50.990;6.962;2023-09-18T12:40:25;100218.38;;;24.38;78.72
49979;BME280;35869;50.990;6.962;2023-09-18T12:45:27;100210.28;;;24.07;73.87
49979;BME280;35869;50.990;6.962;2023-09-18T12:50:27;100208.09;;;24.27;74.30
49979;BME280;35869;50.990;6.962;2023-09-18T12:55:27;100210.41;;;24.38;73.41
49979;BME280;35869;50.990;6.962;2023-09-18T13:00:28;100211.09;;;24.40;73.87
49979;BME280;35869;50.990;6.962;2023-09-18T13:05:28;100208.94;;;24.28;73.42
49979;BME280;35869;50.990;6.962;2023-09-18T13:10:28;100193.81;;;24.44;73.37
49979;BME280;35869;50.990;6.962;2023-09-18T13:15:30;100206.41;;;24.59;68.62
49979;BME280;35869;50.990;6.962;2023-09-18T13:20:31;100196.22;;;24.70;69.43
49979;BME280;35869;50.990;6.962;2023-09-18T13:25:33;100196.66;;;24.35;67.44
49979;BME280;35869;50.990;6.962;2023-09-18T13:30:36;100196.47;;;24.44;64.92
49979;BME280;35869;50.990;6.962;2023-09-18T13:35:42;100202.44;;;24.30;64.70
49979;BME280;35869;50.990;6.962;2023-09-18T13:40:45;100188.44;;;24.61;68.48
49979;BME280;35869;50.990;6.962;2023-09-18T13:45:46;100177.47;;;24.64;65.80
49979;BME280;35869;50.990;6.962;2023-09-18T13:50:46;100187.06;;;24.73;67.06
49979;BME280;35869;50.990;6.962;2023-09-18T13:55:47;100187.03;;;24.81;66.86
49979;BME280;35869;50.990;6.962;2023-09-18T14:00:47;100186.47;;;24.94;67.76
49979;BME280;35869;50.990;6.962;2023-09-18T14:05:47;100179.34;;;24.94;65.81
49979;BME280;35869;50.990;6.962;2023-09-18T14:10:47;100177.88;;;24.84;61.90
49979;BME280;35869;50.990;6.962;2023-09-18T14:15:47;100168.19;;;25.30;62.89
49979;BME280;35869;50.990;6.962;2023-09-18T14:20:48;100161.41;;;24.88;61.78
49979;BME280;35869;50.990;6.962;2023-09-18T14:25:48;100158.88;;;24.95;60.66
49979;BME280;35869;50.990;6.962;2023-09-18T14:30:48;100149.25;;;24.94;59.69
49979;BME280;35869;50.990;6.962;2023-09-18T14:35:48;100148.94;;;25.20;60.48
49979;BME280;35869;50.990;6.962;2023-09-18T14:40:48;100148.66;;;25.15;60.41
49979;BME280;35869;50.990;6.962;2023-09-18T14:45:48;100138.75;;;25.00;60.13
49979;BME280;35869;50.990;6.962;2023-09-18T14:50:55;100138.06;;;25.07;65.16
49979;BME280;35869;50.990;6.962;2023-09-18T14:55:55;100144.34;;;25.14;61.23
49979;BME280;35869;50.990;6.962;2023-09-18T15:00:56;100137.75;;;25.10;57.65
49979;BME280;35869;50.990;6.962;2023-09-18T15:05:56;100141.09;;;24.95;60.61
49979;BME280;35869;50.990;6.962;2023-09-18T15:10:56;100144.72;;;25.11;58.95
49979;BME280;35869;50.990;6.962;2023-09-18T15:15:56;100129.31;;;24.98;60.22
49979;BME280;35869;50.990;6.962;2023-09-18T15:20:57;100124.69;;;24.92;59.24
49979;BME280;35869;50.990;6.962;2023-09-18T15:25:57;100119.13;;;25.02;58.81
49979;BME280;35869;50.990;6.962;2023-09-18T15:30:57;100125.28;;;25.10;61.18
49979;BME280;35869;50.990;6.962;2023-09-18T15:35:57;100129.16;;;24.91;60.01
49979;BME280;35869;50.990;6.962;2023-09-18T15:40:58;100121.03;;;24.93;61.68
49979;BME280;35869;50.990;6.962;2023-09-18T15:45:58;100120.91;;;24.86;62.10
49979;BME280;35869;50.990;6.962;2023-09-18T15:50:58;100117.25;;;24.79;59.27
49979;BME280;35869;50.990;6.962;2023-09-18T15:55:58;100114.09;;;24.53;57.85
49979;BME280;35869;50.990;6.962;2023-09-18T16:00:58;100111.13;;;24.48;58.29
49979;BME280;35869;50.990;6.962;2023-09-18T16:06:17;100121.13;;;24.37;56.80
49979;BME280;35869;50.990;6.962;2023-09-18T16:11:18;100121.25;;;24.44;59.92
49979;BME280;35869;50.990;6.962;2023-09-18T16:16:19;100122.59;;;24.32;60.27
49979;BME280;35869;50.990;6.962;2023-09-18T16:21:19;100134.59;;;24.19;58.53
49979;BME280;35869;50.990;6.962;2023-09-18T16:26:22;100123.19;;;24.03;59.88
49979;BME280;35869;50.990;6.962;2023-09-18T16:31:22;100139.09;;;24.03;60.71
49979;BME280;35869;50.990;6.962;2023-09-18T16:36:23;100135.13;;;24.07;60.06
49979;BME280;35869;50.990;6.962;2023-09-18T16:41:23;100143.75;;;24.01;61.39
49979;BME280;35869;50.990;6.962;2023-09-18T16:46:23;100151.75;;;23.84;59.67
49979;BME280;35869;50.990;6.962;2023-09-18T16:51:24;100158.03;;;23.91;61.03
49979;BME280;35869;50.990;6.962;2023-09-18T16:56:24;100145.59;;;23.84;61.73
49979;BME280;35869;50.990;6.962;2023-09-18T17:01:24;100143.78;;;23.68;61.08
49979;BME280;35869;50.990;6.962;2023-09-18T17:06:25;100149.06;;;23.60;60.73
49979;BME280;35869;50.990;6.962;2023-09-18T17:11:25;100137.78;;;23.50;61.56
49979;BME280;35869;50.990;6.962;2023-09-18T17:16:25;100140.44;;;23.50;61.76
49979;BME280;35869;50.990;6.962;2023-09-18T17:21:25;100144.44;;;23.46;61.89
49979;BME280;35869;50.990;6.962;2023-09-18T17:26:26;100132.47;;;23.33;61.84
49979;BME280;35869;50.990;6.962;2023-09-18T17:31:26;100121.03;;;23.33;62.83
49979;BME280;35869;50.990;6.962;2023-09-18T17:36:26;100128.84;;;23.26;62.45
49979;BME280;35869;50.990;6.962;2023-09-18T17:41:26;100133.78;;;23.21;61.48
49979;BME280;35869;50.990;6.962;2023-09-18T17:46:26;100140.44;;;23.25;63.29
49979;BME280;35869;50.990;6.962;2023-09-18T17:51:27;100153.69;;;23.25;63.29
49979;BME280;35869;50.990;6.962;2023-09-18T17:56:27;100149.69;;;23.05;64.46
49979;BME280;35869;50.990;6.962;2023-09-18T18:01:27;100154.00;;;23.06;64.23
49979;BME280;35869;50.990;6.962;2023-09-18T18:06:27;100176.88;;;23.15;63.51
49979;BME280;35869;50.990;6.962;2023-09-18T18:11:27;100263.06;;;22.59;61.88
49979;BME280;35869;50.990;6.962;2023-09-18T18:16:34;100333.28;;;22.19;74.53
49979;BME280;35869;50.990;6.962;2023-09-18T18:21:34;100322.50;;;22.03;79.68
49979;BME280;35869;50.990;6.962;2023-09-18T18:26:34;100315.41;;;22.03;81.41
49979;BME280;35869;50.990;6.962;2023-09-18T18:31:35;100329.53;;;21.59;83.29
49979;BME280;35869;50.990;6.962;2023-09-18T18:36:35;100333.97;;;21.31;85.53
49979;BME280;35869;50.990;6.962;2023-09-18T18:41:35;100336.41;;;21.04;87.73
49979;BME280;35869;50.990;6.962;2023-09-18T18:46:35;100324.41;;;20.83;89.51
49979;BME280;35869;50.990;6.962;2023-09-18T18:51:35;100315.69;;;20.63;92.00
49979;BME280;35869;50.990;6.962;2023-09-18T18:56:37;100321.81;;;20.44;93.64
49979;BME280;35869;50.990;6.962;2023-09-18T19:01:37;100326.13;;;20.26;95.28
49979;BME280;35869;50.990;6.962;2023-09-18T19:06:37;100325.84;;;20.09;97.43
49979;BME280;35869;50.990;6.962;2023-09-18T19:11:38;100339.88;;;19.90;97.82
49979;BME280;35869;50.990;6.962;2023-09-18T19:16:38;100334.72;;;19.79;98.05
49979;BME280;35869;50.990;6.962;2023-09-18T19:21:39;100348.84;;;19.68;99.05
49979;BME280;35869;50.990;6.962;2023-09-18T19:26:39;100346.28;;;19.57;100.00
49979;BME280;35869;50.990;6.962;2023-09-18T19:31:39;100348.50;;;19.52;100.00
49979;BME280;35869;50.990;6.962;2023-09-18T19:36:39;100346.66;;;19.43;99.94
49979;BME280;35869;50.990;6.962;2023-09-18T19:41:39;100344.97;;;19.32;100.00
49979;BME280;35869;50.990;6.962;2023-09-18T19:46:40;100349.34;;;19.22;100.00
49979;BME280;35869;50.990;6.962;2023-09-18T19:51:40;100364.16;;;19.13;100.00
49979;BME280;35869;50.990;6.962;2023-09-18T19:56:41;100368.84;;;19.10;100.00
49979;BME280;35869;50.990;6.962;2023-09-18T20:01:41;100366.75;;;19.04;100.00
49979;BME280;35869;50.990;6.962;2023-09-18T20:06:41;100364.78;;;18.96;100.00
49979;BME280;35869;50.990;6.962;2023-09-18T20:11:41;100373.88;;;18.92;100.00
49979;BME280;35869;50.990;6.962;2023-09-18T20:16:42;100368.91;;;18.89;100.00
49979;BME280;35869;50.990;6.962;2023-09-18T20:21:43;100384.75;;;18.78;100.00
49979;BME280;35869;50.990;6.962;2023-09-18T20:26:43;100393.88;;;18.74;100.00
49979;BME280;35869;50.990;6.962;2023-09-18T20:31:43;100389.00;;;18.69;100.00
49979;BME280;35869;50.990;6.962;2023-09-18T20:36:43;100399.75;;;18.66;100.00
49979;BME280;35869;50.990;6.962;2023-09-18T20:41:44;100394.88;;;18.61;100.00
49979;BME280;35869;50.990;6.962;2023-09-18T20:46:44;100392.75;;;18.55;100.00
49979;BME280;35869;50.990;6.962;2023-09-18T20:51:44;100397.41;;;18.52;100.00
49979;BME280;35869;50.990;6.962;2023-09-18T20:56:44;100407.47;;;18.47;100.00
49979;BME280;35869;50.990;6.962;2023-09-18T21:01:45;100421.03;;;18.42;100.00
49979;BME280;35869;50.990;6.962;2023-09-18T21:06:45;100419.38;;;18.41;100.00
49979;BME280;35869;50.990;6.962;2023-09-18T21:11:45;100420.56;;;18.37;100.00
49979;BME280;35869;50.990;6.962;2023-09-18T21:16:45;100422.47;;;18.35;100.00
49979;BME280;35869;50.990;6.962;2023-09-18T21:21:45;100427.19;;;18.31;100.00
49979;BME280;35869;50.990;6.962;2023-09-18T21:26:45;100414.38;;;18.27;100.00
49979;BME280;35869;50.990;6.962;2023-09-18T21:31:46;100427.69;;;18.25;100.00
49979;BME280;35869;50.990;6.962;2023-09-18T21:36:46;100440.22;;;18.22;100.00
49979;BME280;35869;50.990;6.962;2023-09-18T21:41:46;100442.72;;;18.23;100.00
49979;BME280;35869;50.990;6.962;2023-09-18T21:46:47;100447.56;;;18.18;100.00
49979;BME280;35869;50.990;6.962;2023-09-18T21:51:47;100456.63;;;18.14;100.00
49979;BME280;35869;50.990;6.962;2023-09-18T21:56:47;100453.41;;;18.10;100.00
49979;BME280;35869;50.990;6.962;2023-09-18T22:01:47;100467.66;;;18.08;100.00
49979;BME280;35869;50.990;6.962;2023-09-18T22:06:51;100470.91;;;18.00;100.00
49979;BME280;35869;50.990;6.962;2023-09-18T22:11:51;100479.72;;;17.99;100.00
49979;BME280;35869;50.990;6.962;2023-09-18T22:16:51;100485.47;;;17.93;100.00
49979;BME280;35869;50.990;6.962;2023-09-18T22:21:51;100495.28;;;17.80;100.00
49979;BME280;35869;50.990;6.962;2023-09-18T22:26:52;100505.19;;;17.88;100.00
49979;BME280;35869;50.990;6.962;2023-09-18T22:31:52;100513.44;;;17.83;100.00
49979;BME280;35869;50.990;6.962;2023-09-18T22:36:55;100518.44;;;17.75;100.00
49979;BME280;35869;50.990;6.962;2023-09-18T22:57:46;100536.06;;;17.50;100.00
49979;BME280;35869;50.990;6.962;2023-09-18T23:02:46;100542.50;;;17.46;100.00
49979;BME280;35869;50.990;6.962;2023-09-18T23:13:11;100548.19;;;17.29;100.00
49979;BME280;35869;50.990;6.962;2023-09-18T23:18:29;100549.28;;;17.26;100.00
49979;BME280;35869;50.990;6.962;2023-09-18T23:23:30;100572.03;;;17.15;100.00
49979;BME280;35869;50.990;6.962;2023-09-18T23:28:30;100579.91;;;17.15;100.00
49979;BME280;35869;50.990;6.962;2023-09-18T23:33:30;100580.13;;;17.12;100.00
49979;BME280;35869;50.990;6.962;2023-09-18T23:38:31;100580.59;;;17.05;100.00
49979;BME280;35869;50.990;6.962;2023-09-18T23:43:31;100585.69;;;16.96;100.00
49979;BME280;35869;50.990;6.962;2023-09-18T23:48:31;100584.94;;;16.94;100.00
49979;BME280;35869;50.990;6.962;2023-09-18T23:53:31;100601.06;;;16.89;100.00
49979;BME280;35869;50.990;6.962;2023-09-18T23:58:32;100599.31;;;16.77;100.00
